M/V Gs980 — WTK9405 — position and weather

sailwx.info

Track history (hours):
 
Tides and Currents Weather Stations Pressure Air Temp Water Temp Dewpoint Dewpoint Depression Visibility Wind Speed Wind Dir Waves Ship Positions

M/V Gs980

Owner: ERGON MARINE AND INDUSTRIAL SUPPLY, VICKSBURG, MS. More information available from US FCC via Universal Licensing System and Coast Guard Vessel Documentation Center.

Last reported at 2016-Feb-08 01:33 UTC. Time now 2016-Feb-08 01:56 UTC.
Position N 32°23' W 090°53'.

Length 16 m.

Type: Towing. MMSI: 367099640.

Date/timePositionNaut miles runAvg speedWind from/ knotsBaromVisibWave heightAir tempDewpointWater temp
2016-Feb-08 01:33N 32°23' W 090°53'2 2.3
2016-Feb-08 00:33N 32°21' W 090°53'1 0.4
2016-Feb-07 21:18N 32°20' W 090°54'3 4.5
2016-Feb-07 20:33N 32°23' W 090°53'0 0.0
2016-Feb-07 19:33N 32°23' W 090°53'0 0.0
2016-Feb-07 18:33N 32°23' W 090°53'0 0.0
2016-Feb-07 17:33N 32°23' W 090°53'5 4.6
2016-Feb-07 16:33N 32°19' W 090°55'0 0.5
2016-Feb-07 15:33N 32°18' W 090°55'3 2.5
2016-Feb-07 14:33N 32°20' W 090°54'3 2.8
2016-Feb-07 13:33N 32°23' W 090°53'4 1.8
2016-Feb-07 11:32N 32°20' W 090°54'2 2.2
2016-Feb-07 10:33N 32°22' W 090°53'0 0.0
2016-Feb-07 09:33N 32°22' W 090°53'0 0.0
2016-Feb-07 08:33N 32°22' W 090°53'0 0.0
2016-Feb-07 07:33N 32°22' W 090°53'0 0.0
2016-Feb-07 06:33N 32°22' W 090°53'0 0.0
2016-Feb-07 05:33N 32°22' W 090°53'1 1.3
2016-Feb-07 04:33N 32°20' W 090°54'1 0.5
2016-Feb-07 03:33N 32°21' W 090°53'2 2.2
2016-Feb-07 02:33N 32°23' W 090°53'0 0.4
2016-Feb-07 01:33N 32°23' W 090°53'4 3.7
2016-Feb-07 00:33N 32°20' W 090°54'0 0.0
2016-Feb-06 22:33N 32°20' W 090°54'4 3.7
2016-Feb-06 21:33N 32°23' W 090°53'0 0.0
2016-Feb-06 20:34N 32°23' W 090°53'2 2.2
2016-Feb-06 19:33N 32°21' W 090°53'2 2.3
2016-Feb-06 18:33N 32°23' W 090°54'0 0.2
2016-Feb-06 17:33N 32°23' W 090°54'0 0.3
2016-Feb-06 16:33N 32°23' W 090°53'0 0.0
2016-Feb-06 15:33N 32°23' W 090°53'1 0.5
2016-Feb-06 14:33N 32°23' W 090°53'4 1.2
2016-Feb-06 11:33N 32°20' W 090°54'2 2.0
2016-Feb-06 10:33N 32°21' W 090°53'0 0.0
2016-Feb-06 09:33N 32°21' W 090°53'0 0.0
2016-Feb-06 08:33N 32°21' W 090°53'1 1.4
2016-Feb-06 07:33N 32°23' W 090°53'1 0.7
2016-Feb-06 06:33N 32°23' W 090°53'1 0.8
2016-Feb-06 05:33N 32°23' W 090°53'4 4.1
2016-Feb-06 04:33N 32°21' W 090°57'0 0.2
2016-Feb-06 03:33N 32°21' W 090°57'0 0.1
2016-Feb-06 02:33N 32°21' W 090°57'3 3.5
2016-Feb-06 01:33N 32°21' W 090°53'2 1.6
2016-Feb-06 00:33N 32°20' W 090°54'1 1.2
2016-Feb-05 23:33N 32°21' W 090°53'3 2.9
2016-Feb-05 22:33N 32°24' W 090°55'2 1.6
2016-Feb-05 21:33N 32°23' W 090°53'0 0.3
2016-Feb-05 20:33N 32°23' W 090°53'0 0.3
2016-Feb-05 19:33N 32°23' W 090°54'0 0.2
2016-Feb-05 18:33N 32°23' W 090°54'1 0.9
2016-Feb-05 17:33N 32°23' W 090°53'0 0.0
2016-Feb-05 16:33N 32°23' W 090°53'1 0.5
2016-Feb-05 15:33N 32°23' W 090°52'1 1.3
2016-Feb-05 14:33N 32°23' W 090°54'1 1.1
2016-Feb-05 13:33N 32°23' W 090°53'3 1.4
2016-Feb-05 11:12N 32°20' W 090°54'4 5.7
2016-Feb-05 10:33N 32°23' W 090°53'0 0.0
2016-Feb-05 09:33N 32°23' W 090°53'0 0.0
2016-Feb-05 08:33N 32°23' W 090°53'0 0.0
2016-Feb-05 07:33N 32°23' W 090°53'0 0.0
2016-Feb-05 06:33N 32°23' W 090°53'0 0.0
2016-Feb-05 05:33N 32°23' W 090°53'0 0.0
2016-Feb-05 04:33N 32°23' W 090°53'0 0.0
2016-Feb-05 03:33N 32°23' W 090°53'0 0.3
2016-Feb-05 02:33N 32°23' W 090°53'0 0.3
2016-Feb-05 01:33N 32°23' W 090°53'3 2.7
2016-Feb-05 00:33N 32°20' W 090°54'1 1.3
2016-Feb-04 23:33N 32°22' W 090°53'2 1.8
2016-Feb-04 22:34N 32°23' W 090°54'1 0.5
2016-Feb-04 21:34N 32°23' W 090°53'0 0.5
2016-Feb-04 20:33N 32°23' W 090°53'1 1.1
2016-Feb-04 19:34N 32°23' W 090°54'1 1.2
2016-Feb-04 18:33N 32°24' W 090°55'0 0.0
2016-Feb-04 17:33N 32°24' W 090°55'0 0.0
2016-Feb-04 16:33N 32°24' W 090°55'0 0.0
2016-Feb-04 15:34N 32°24' W 090°55'0 0.0
2016-Feb-04 14:33N 32°24' W 090°55'3 2.6
2016-Feb-04 13:33N 32°22' W 090°53'4 3.8
2016-Feb-04 12:33N 32°18' W 090°55'0 0.0
2016-Feb-04 11:33N 32°18' W 090°55'1 0.5
2016-Feb-04 10:34N 32°18' W 090°55'0 0.4
2016-Feb-04 09:33N 32°18' W 090°56'1 1.5
2016-Feb-04 08:34N 32°19' W 090°54'4 4.2
2016-Feb-04 07:33N 32°23' W 090°53'1 0.7
2016-Feb-04 06:33N 32°23' W 090°53'0 0.0
2016-Feb-04 05:33N 32°23' W 090°53'0 0.0
2016-Feb-04 04:33N 32°23' W 090°53'0 0.0
2016-Feb-04 03:34N 32°23' W 090°53'0 0.0
2016-Feb-04 02:33N 32°23' W 090°53'0 0.1
2016-Feb-04 01:33N 32°23' W 090°53'3 3.0
2016-Feb-04 00:33N 32°20' W 090°54'1 0.7
2016-Feb-03 23:33N 32°20' W 090°54'0 0.0
2016-Feb-03 22:33N 32°20' W 090°54'1 1.1
2016-Feb-03 21:33N 32°21' W 090°53'3 2.6
2016-Feb-03 20:34N 32°23' W 090°53'0 0.0
2016-Feb-03 19:34N 32°23' W 090°53'0 0.0
2016-Feb-03 18:33N 32°23' W 090°53'0 0.0
2016-Feb-03 17:33N 32°23' W 090°53'0 0.0
2016-Feb-03 16:34N 32°23' W 090°53'0 0.0
2016-Feb-03 15:33N 32°23' W 090°53'0 0.2
2016-Feb-03 14:33N 32°23' W 090°53'0 0.4
2016-Feb-03 13:34N 32°23' W 090°53'3 2.8
2016-Feb-03 12:33N 32°20' W 090°54'1 0.5
2016-Feb-03 11:07N 32°20' W 090°54'2 3.8
2016-Feb-03 10:34N 32°22' W 090°53'0 0.0
2016-Feb-03 09:34N 32°22' W 090°53'0 0.0
2016-Feb-03 08:34N 32°22' W 090°53'0 0.0
2016-Feb-03 07:34N 32°22' W 090°53'0 0.0
2016-Feb-03 06:34N 32°22' W 090°53'0 0.0
2016-Feb-03 05:34N 32°22' W 090°53'0 0.0
2016-Feb-03 04:34N 32°22' W 090°53'2 2.2
2016-Feb-03 03:34N 32°20' W 090°54'1 0.9
2016-Feb-03 02:34N 32°19' W 090°54'5 4.5
2016-Feb-03 01:34N 32°23' W 090°53'4 3.7
2016-Feb-03 00:34N 32°20' W 090°54'0 0.5
2016-Feb-02 23:33N 32°19' W 090°54'1 1.3
2016-Feb-02 22:33N 32°18' W 090°55'4 3.7
2016-Feb-02 21:33N 32°21' W 090°53'0 0.0
2016-Feb-02 20:33N 32°21' W 090°53'1 0.6
2016-Feb-02 19:33N 32°22' W 090°53'1 1.4
2016-Feb-02 18:33N 32°23' W 090°53'0 0.0
2016-Feb-02 17:33N 32°23' W 090°53'3 3.0
2016-Feb-02 16:33N 32°20' W 090°54'1 1.4
2016-Feb-02 15:33N 32°21' W 090°53'2 0.1
2016-Feb-01 22:34N 32°20' W 090°54'0 0.0
2016-Feb-01 21:34N 32°20' W 090°54'0 0.0
2016-Feb-01 20:34N 32°20' W 090°54'0 0.0
2016-Feb-01 19:34N 32°20' W 090°54'0 0.0
2016-Feb-01 18:34N 32°20' W 090°54'0 0.0
2016-Feb-01 17:34N 32°20' W 090°54'0 0.0
2016-Feb-01 16:34N 32°20' W 090°54'0 0.0
2016-Feb-01 15:33N 32°20' W 090°54'0 0.0
2016-Feb-01 14:34N 32°20' W 090°54'0 0.0
2016-Feb-01 13:34N 32°20' W 090°54'0 0.0
2016-Feb-01 12:34N 32°20' W 090°54'0 0.0
2016-Feb-01 11:22N 32°20' W 090°54'4 4.5
2016-Feb-01 10:33N 32°23' W 090°53'0 0.0
2016-Feb-01 09:33N 32°23' W 090°53'0 0.0
2016-Feb-01 08:33N 32°23' W 090°53'0 0.0
2016-Feb-01 07:33N 32°23' W 090°53'0 0.0
2016-Feb-01 06:33N 32°23' W 090°53'0 0.0
2016-Feb-01 05:33N 32°23' W 090°53'0 0.1
2016-Feb-01 04:33N 32°23' W 090°53'0 0.0
2016-Feb-01 03:33N 32°23' W 090°53'0 0.4
2016-Feb-01 02:33N 32°23' W 090°53'4 4.1
2016-Feb-01 01:33N 32°21' W 090°57'3 2.5
2016-Feb-01 00:33N 32°20' W 090°54'1 0.6
2016-Jan-31 23:21N 32°20' W 090°54'4 4.4
2016-Jan-31 22:33N 32°23' W 090°53'0 0.0
2016-Jan-31 21:33N 32°23' W 090°53'0 0.0
2016-Jan-31 20:33N 32°23' W 090°53'0 0.1
2016-Jan-31 19:33N 32°23' W 090°53'1 0.5
2016-Jan-31 18:33N 32°23' W 090°53'0 0.3
2016-Jan-31 17:33N 32°23' W 090°53'3 3.0
2016-Jan-31 16:33N 32°20' W 090°54'4 4.0
2016-Jan-31 15:33N 32°17' W 090°57'1 1.3
2016-Jan-31 14:33N 32°16' W 090°57'7 7.4
2016-Jan-31 13:33N 32°22' W 090°53'3 2.9
2016-Jan-31 12:33N 32°20' W 090°54'2 2.0
2016-Jan-31 11:33N 32°22' W 090°53'0 0.0
2016-Jan-31 10:33N 32°22' W 090°53'0 0.0
2016-Jan-31 09:33N 32°22' W 090°53'0 0.0
2016-Jan-31 08:33N 32°22' W 090°53'0 0.0
2016-Jan-31 07:33N 32°22' W 090°53'0 0.0
2016-Jan-31 06:33N 32°22' W 090°53'2 1.5
2016-Jan-31 05:33N 32°20' W 090°54'0 0.1
2016-Jan-31 04:33N 32°20' W 090°54'2 1.5
2016-Jan-31 03:33N 32°21' W 090°53'1 1.3
2016-Jan-31 02:33N 32°23' W 090°53'1 0.8
2016-Jan-31 01:33N 32°23' W 090°53'1 0.5
2016-Jan-30 22:33N 32°22' W 090°53'1 1.2
2016-Jan-30 21:33N 32°23' W 090°53'0 0.0
2016-Jan-30 20:33N 32°23' W 090°53'1 0.5
2016-Jan-30 19:33N 32°23' W 090°53'1 1.2
2016-Jan-30 18:34N 32°24' W 090°55'3 3.1
2016-Jan-30 17:33N 32°21' W 090°54'3 2.7
2016-Jan-30 16:33N 32°21' W 090°57'1 0.8
2016-Jan-30 15:33N 32°21' W 090°56'3 3.0
2016-Jan-30 14:33N 32°23' W 090°53'1 0.6
2016-Jan-30 13:33N 32°23' W 090°53'4 3.6
2016-Jan-30 12:33N 32°20' W 090°54'2 1.6
2016-Jan-30 11:33N 32°21' W 090°53'2 1.8
2016-Jan-30 10:33N 32°23' W 090°53'0 0.2
2016-Jan-30 09:33N 32°23' W 090°53'1 0.6
2016-Jan-30 08:33N 32°22' W 090°53'2 1.7
2016-Jan-30 07:33N 32°21' W 090°53'3 3.1
2016-Jan-30 06:33N 32°21' W 090°57'0 0.0
2016-Jan-30 05:33N 32°21' W 090°57'0 0.0
2016-Jan-30 04:33N 32°21' W 090°57'0 0.1
2016-Jan-30 03:33N 32°21' W 090°57'2 1.9
2016-Jan-30 02:33N 32°21' W 090°55'3 2.8
2016-Jan-30 01:33N 32°23' W 090°53'2 2.1
2016-Jan-30 00:33N 32°21' W 090°53'1 1.2
2016-Jan-29 23:33N 32°22' W 090°53'1 1.0
2016-Jan-29 22:33N 32°23' W 090°53'1 0.6
2016-Jan-29 21:33N 32°23' W 090°53'1 0.5
2016-Jan-29 20:33N 32°23' W 090°53'0 0.1
2016-Jan-29 19:33N 32°23' W 090°53'0 0.0
2016-Jan-29 18:33N 32°23' W 090°53'0 0.1
2016-Jan-29 17:34N 32°23' W 090°53'0 0.1
2016-Jan-29 16:33N 32°23' W 090°53'0 0.1
2016-Jan-29 15:33N 32°23' W 090°53'1 0.6
2016-Jan-29 14:33N 32°23' W 090°53'0 0.2
2016-Jan-29 13:33N 32°23' W 090°53'3 2.3
2016-Jan-29 12:10N 32°20' W 090°54'2 3.6
2016-Jan-29 11:34N 32°22' W 090°53'0 0.0
2016-Jan-29 10:34N 32°22' W 090°53'0 0.0
2016-Jan-29 09:34N 32°22' W 090°53'0 0.0
2016-Jan-29 08:34N 32°22' W 090°53'1 1.3
2016-Jan-29 07:33N 32°23' W 090°53'0 0.0
2016-Jan-29 06:33N 32°23' W 090°53'1 0.7
2016-Jan-29 05:33N 32°23' W 090°53'0 0.0
2016-Jan-29 04:34N 32°23' W 090°53'0 0.0
2016-Jan-29 03:33N 32°23' W 090°53'1 0.8
2016-Jan-29 02:33N 32°23' W 090°53'1 0.7
2016-Jan-29 01:34N 32°23' W 090°53'  
Track history (hours):
 
Tides and Currents Weather Stations Pressure Air Temp Water Temp Dewpoint Dewpoint Depression Visibility Wind Speed Wind Dir Waves Ship Positions

M/V Gs980

Owner: ERGON MARINE AND INDUSTRIAL SUPPLY, VICKSBURG, MS. More information available from US FCC via Universal Licensing System and Coast Guard Vessel Documentation Center.

Last reported at 2016-Feb-08 01:33 UTC. Time now 2016-Feb-08 01:56 UTC.
Position N 32°23' W 090°53'.

Length 16 m.

Type: Towing. MMSI: 367099640.

Date/timePositionNaut miles runAvg speedWind from/ knotsBaromVisibWave heightAir tempDewpointWater temp
2016-Feb-08 01:33N 32°23' W 090°53'2 2.3
2016-Feb-08 00:33N 32°21' W 090°53'1 0.4
2016-Feb-07 21:18N 32°20' W 090°54'3 4.5
2016-Feb-07 20:33N 32°23' W 090°53'0 0.0
2016-Feb-07 19:33N 32°23' W 090°53'0 0.0
2016-Feb-07 18:33N 32°23' W 090°53'0 0.0
2016-Feb-07 17:33N 32°23' W 090°53'5 4.6
2016-Feb-07 16:33N 32°19' W 090°55'0 0.5
2016-Feb-07 15:33N 32°18' W 090°55'3 2.5
2016-Feb-07 14:33N 32°20' W 090°54'3 2.8
2016-Feb-07 13:33N 32°23' W 090°53'4 1.8
2016-Feb-07 11:32N 32°20' W 090°54'2 2.2
2016-Feb-07 10:33N 32°22' W 090°53'0 0.0
2016-Feb-07 09:33N 32°22' W 090°53'0 0.0
2016-Feb-07 08:33N 32°22' W 090°53'0 0.0
2016-Feb-07 07:33N 32°22' W 090°53'0 0.0
2016-Feb-07 06:33N 32°22' W 090°53'0 0.0
2016-Feb-07 05:33N 32°22' W 090°53'1 1.3
2016-Feb-07 04:33N 32°20' W 090°54'1 0.5
2016-Feb-07 03:33N 32°21' W 090°53'2 2.2
2016-Feb-07 02:33N 32°23' W 090°53'0 0.4
2016-Feb-07 01:33N 32°23' W 090°53'4 3.7
2016-Feb-07 00:33N 32°20' W 090°54'0 0.0
2016-Feb-06 22:33N 32°20' W 090°54'4 3.7
2016-Feb-06 21:33N 32°23' W 090°53'0 0.0
2016-Feb-06 20:34N 32°23' W 090°53'2 2.2
2016-Feb-06 19:33N 32°21' W 090°53'2 2.3
2016-Feb-06 18:33N 32°23' W 090°54'0 0.2
2016-Feb-06 17:33N 32°23' W 090°54'0 0.3
2016-Feb-06 16:33N 32°23' W 090°53'0 0.0
2016-Feb-06 15:33N 32°23' W 090°53'1 0.5
2016-Feb-06 14:33N 32°23' W 090°53'4 1.2
2016-Feb-06 11:33N 32°20' W 090°54'2 2.0
2016-Feb-06 10:33N 32°21' W 090°53'0 0.0
2016-Feb-06 09:33N 32°21' W 090°53'0 0.0
2016-Feb-06 08:33N 32°21' W 090°53'1 1.4
2016-Feb-06 07:33N 32°23' W 090°53'1 0.7
2016-Feb-06 06:33N 32°23' W 090°53'1 0.8
2016-Feb-06 05:33N 32°23' W 090°53'4 4.1
2016-Feb-06 04:33N 32°21' W 090°57'0 0.2
2016-Feb-06 03:33N 32°21' W 090°57'0 0.1
2016-Feb-06 02:33N 32°21' W 090°57'3 3.5
2016-Feb-06 01:33N 32°21' W 090°53'2 1.6
2016-Feb-06 00:33N 32°20' W 090°54'1 1.2
2016-Feb-05 23:33N 32°21' W 090°53'3 2.9
2016-Feb-05 22:33N 32°24' W 090°55'2 1.6
2016-Feb-05 21:33N 32°23' W 090°53'0 0.3
2016-Feb-05 20:33N 32°23' W 090°53'0 0.3
2016-Feb-05 19:33N 32°23' W 090°54'0 0.2
2016-Feb-05 18:33N 32°23' W 090°54'1 0.9
2016-Feb-05 17:33N 32°23' W 090°53'0 0.0
2016-Feb-05 16:33N 32°23' W 090°53'1 0.5
2016-Feb-05 15:33N 32°23' W 090°52'1 1.3
2016-Feb-05 14:33N 32°23' W 090°54'1 1.1
2016-Feb-05 13:33N 32°23' W 090°53'3 1.4
2016-Feb-05 11:12N 32°20' W 090°54'4 5.7
2016-Feb-05 10:33N 32°23' W 090°53'0 0.0
2016-Feb-05 09:33N 32°23' W 090°53'0 0.0
2016-Feb-05 08:33N 32°23' W 090°53'0 0.0
2016-Feb-05 07:33N 32°23' W 090°53'0 0.0
2016-Feb-05 06:33N 32°23' W 090°53'0 0.0
2016-Feb-05 05:33N 32°23' W 090°53'0 0.0
2016-Feb-05 04:33N 32°23' W 090°53'0 0.0
2016-Feb-05 03:33N 32°23' W 090°53'0 0.3
2016-Feb-05 02:33N 32°23' W 090°53'0 0.3
2016-Feb-05 01:33N 32°23' W 090°53'3 2.7
2016-Feb-05 00:33N 32°20' W 090°54'1 1.3
2016-Feb-04 23:33N 32°22' W 090°53'2 1.8
2016-Feb-04 22:34N 32°23' W 090°54'1 0.5
2016-Feb-04 21:34N 32°23' W 090°53'0 0.5
2016-Feb-04 20:33N 32°23' W 090°53'1 1.1
2016-Feb-04 19:34N 32°23' W 090°54'1 1.2
2016-Feb-04 18:33N 32°24' W 090°55'0 0.0
2016-Feb-04 17:33N 32°24' W 090°55'0 0.0
2016-Feb-04 16:33N 32°24' W 090°55'0 0.0
2016-Feb-04 15:34N 32°24' W 090°55'0 0.0
2016-Feb-04 14:33N 32°24' W 090°55'3 2.6
2016-Feb-04 13:33N 32°22' W 090°53'4 3.8
2016-Feb-04 12:33N 32°18' W 090°55'0 0.0
2016-Feb-04 11:33N 32°18' W 090°55'1 0.5
2016-Feb-04 10:34N 32°18' W 090°55'0 0.4
2016-Feb-04 09:33N 32°18' W 090°56'1 1.5
2016-Feb-04 08:34N 32°19' W 090°54'4 4.2
2016-Feb-04 07:33N 32°23' W 090°53'1 0.7
2016-Feb-04 06:33N 32°23' W 090°53'0 0.0
2016-Feb-04 05:33N 32°23' W 090°53'0 0.0
2016-Feb-04 04:33N 32°23' W 090°53'0 0.0
2016-Feb-04 03:34N 32°23' W 090°53'0 0.0
2016-Feb-04 02:33N 32°23' W 090°53'0 0.1
2016-Feb-04 01:33N 32°23' W 090°53'3 3.0
2016-Feb-04 00:33N 32°20' W 090°54'1 0.7
2016-Feb-03 23:33N 32°20' W 090°54'0 0.0
2016-Feb-03 22:33N 32°20' W 090°54'1 1.1
2016-Feb-03 21:33N 32°21' W 090°53'3 2.6
2016-Feb-03 20:34N 32°23' W 090°53'0 0.0
2016-Feb-03 19:34N 32°23' W 090°53'0 0.0
2016-Feb-03 18:33N 32°23' W 090°53'0 0.0
2016-Feb-03 17:33N 32°23' W 090°53'0 0.0
2016-Feb-03 16:34N 32°23' W 090°53'0 0.0
2016-Feb-03 15:33N 32°23' W 090°53'0 0.2
2016-Feb-03 14:33N 32°23' W 090°53'0 0.4
2016-Feb-03 13:34N 32°23' W 090°53'3 2.8
2016-Feb-03 12:33N 32°20' W 090°54'1 0.5
2016-Feb-03 11:07N 32°20' W 090°54'2 3.8
2016-Feb-03 10:34N 32°22' W 090°53'0 0.0
2016-Feb-03 09:34N 32°22' W 090°53'0 0.0
2016-Feb-03 08:34N 32°22' W 090°53'0 0.0
2016-Feb-03 07:34N 32°22' W 090°53'0 0.0
2016-Feb-03 06:34N 32°22' W 090°53'0 0.0
2016-Feb-03 05:34N 32°22' W 090°53'0 0.0
2016-Feb-03 04:34N 32°22' W 090°53'2 2.2
2016-Feb-03 03:34N 32°20' W 090°54'1 0.9
2016-Feb-03 02:34N 32°19' W 090°54'5 4.5
2016-Feb-03 01:34N 32°23' W 090°53'4 3.7
2016-Feb-03 00:34N 32°20' W 090°54'0 0.5
2016-Feb-02 23:33N 32°19' W 090°54'1 1.3
2016-Feb-02 22:33N 32°18' W 090°55'4 3.7
2016-Feb-02 21:33N 32°21' W 090°53'0 0.0
2016-Feb-02 20:33N 32°21' W 090°53'1 0.6
2016-Feb-02 19:33N 32°22' W 090°53'1 1.4
2016-Feb-02 18:33N 32°23' W 090°53'0 0.0
2016-Feb-02 17:33N 32°23' W 090°53'3 3.0
2016-Feb-02 16:33N 32°20' W 090°54'1 1.4
2016-Feb-02 15:33N 32°21' W 090°53'2 0.1
2016-Feb-01 22:34N 32°20' W 090°54'0 0.0
2016-Feb-01 21:34N 32°20' W 090°54'0 0.0
2016-Feb-01 20:34N 32°20' W 090°54'0 0.0
2016-Feb-01 19:34N 32°20' W 090°54'0 0.0
2016-Feb-01 18:34N 32°20' W 090°54'0 0.0
2016-Feb-01 17:34N 32°20' W 090°54'0 0.0
2016-Feb-01 16:34N 32°20' W 090°54'0 0.0
2016-Feb-01 15:33N 32°20' W 090°54'0 0.0
2016-Feb-01 14:34N 32°20' W 090°54'0 0.0
2016-Feb-01 13:34N 32°20' W 090°54'0 0.0
2016-Feb-01 12:34N 32°20' W 090°54'0 0.0
2016-Feb-01 11:22N 32°20' W 090°54'4 4.5
2016-Feb-01 10:33N 32°23' W 090°53'0 0.0
2016-Feb-01 09:33N 32°23' W 090°53'0 0.0
2016-Feb-01 08:33N 32°23' W 090°53'0 0.0
2016-Feb-01 07:33N 32°23' W 090°53'0 0.0
2016-Feb-01 06:33N 32°23' W 090°53'0 0.0
2016-Feb-01 05:33N 32°23' W 090°53'0 0.1
2016-Feb-01 04:33N 32°23' W 090°53'0 0.0
2016-Feb-01 03:33N 32°23' W 090°53'0 0.4
2016-Feb-01 02:33N 32°23' W 090°53'4 4.1
2016-Feb-01 01:33N 32°21' W 090°57'3 2.5
2016-Feb-01 00:33N 32°20' W 090°54'1 0.6
2016-Jan-31 23:21N 32°20' W 090°54'4 4.4
2016-Jan-31 22:33N 32°23' W 090°53'0 0.0
2016-Jan-31 21:33N 32°23' W 090°53'0 0.0
2016-Jan-31 20:33N 32°23' W 090°53'0 0.1
2016-Jan-31 19:33N 32°23' W 090°53'1 0.5
2016-Jan-31 18:33N 32°23' W 090°53'0 0.3
2016-Jan-31 17:33N 32°23' W 090°53'3 3.0
2016-Jan-31 16:33N 32°20' W 090°54'4 4.0
2016-Jan-31 15:33N 32°17' W 090°57'1 1.3
2016-Jan-31 14:33N 32°16' W 090°57'7 7.4
2016-Jan-31 13:33N 32°22' W 090°53'3 2.9
2016-Jan-31 12:33N 32°20' W 090°54'2 2.0
2016-Jan-31 11:33N 32°22' W 090°53'0 0.0
2016-Jan-31 10:33N 32°22' W 090°53'0 0.0
2016-Jan-31 09:33N 32°22' W 090°53'0 0.0
2016-Jan-31 08:33N 32°22' W 090°53'0 0.0
2016-Jan-31 07:33N 32°22' W 090°53'0 0.0
2016-Jan-31 06:33N 32°22' W 090°53'2 1.5
2016-Jan-31 05:33N 32°20' W 090°54'0 0.1
2016-Jan-31 04:33N 32°20' W 090°54'2 1.5
2016-Jan-31 03:33N 32°21' W 090°53'1 1.3
2016-Jan-31 02:33N 32°23' W 090°53'1 0.8
2016-Jan-31 01:33N 32°23' W 090°53'1 0.5
2016-Jan-30 22:33N 32°22' W 090°53'1 1.2
2016-Jan-30 21:33N 32°23' W 090°53'0 0.0
2016-Jan-30 20:33N 32°23' W 090°53'1 0.5
2016-Jan-30 19:33N 32°23' W 090°53'1 1.2
2016-Jan-30 18:34N 32°24' W 090°55'3 3.1
2016-Jan-30 17:33N 32°21' W 090°54'3 2.7
2016-Jan-30 16:33N 32°21' W 090°57'1 0.8
2016-Jan-30 15:33N 32°21' W 090°56'3 3.0
2016-Jan-30 14:33N 32°23' W 090°53'1 0.6
2016-Jan-30 13:33N 32°23' W 090°53'4 3.6
2016-Jan-30 12:33N 32°20' W 090°54'2 1.6
2016-Jan-30 11:33N 32°21' W 090°53'2 1.8
2016-Jan-30 10:33N 32°23' W 090°53'0 0.2
2016-Jan-30 09:33N 32°23' W 090°53'1 0.6
2016-Jan-30 08:33N 32°22' W 090°53'2 1.7
2016-Jan-30 07:33N 32°21' W 090°53'3 3.1
2016-Jan-30 06:33N 32°21' W 090°57'0 0.0
2016-Jan-30 05:33N 32°21' W 090°57'0 0.0
2016-Jan-30 04:33N 32°21' W 090°57'0 0.1
2016-Jan-30 03:33N 32°21' W 090°57'2 1.9
2016-Jan-30 02:33N 32°21' W 090°55'3 2.8
2016-Jan-30 01:33N 32°23' W 090°53'2 2.1
2016-Jan-30 00:33N 32°21' W 090°53'1 1.2
2016-Jan-29 23:33N 32°22' W 090°53'1 1.0
2016-Jan-29 22:33N 32°23' W 090°53'1 0.6
2016-Jan-29 21:33N 32°23' W 090°53'1 0.5
2016-Jan-29 20:33N 32°23' W 090°53'0 0.1
2016-Jan-29 19:33N 32°23' W 090°53'0 0.0
2016-Jan-29 18:33N 32°23' W 090°53'0 0.1
2016-Jan-29 17:34N 32°23' W 090°53'0 0.1
2016-Jan-29 16:33N 32°23' W 090°53'0 0.1
2016-Jan-29 15:33N 32°23' W 090°53'1 0.6
2016-Jan-29 14:33N 32°23' W 090°53'0 0.2
2016-Jan-29 13:33N 32°23' W 090°53'3 2.3
2016-Jan-29 12:10N 32°20' W 090°54'2 3.6
2016-Jan-29 11:34N 32°22' W 090°53'0 0.0
2016-Jan-29 10:34N 32°22' W 090°53'0 0.0
2016-Jan-29 09:34N 32°22' W 090°53'0 0.0
2016-Jan-29 08:34N 32°22' W 090°53'1 1.3
2016-Jan-29 07:33N 32°23' W 090°53'0 0.0
2016-Jan-29 06:33N 32°23' W 090°53'1 0.7
2016-Jan-29 05:33N 32°23' W 090°53'0 0.0
2016-Jan-29 04:34N 32°23' W 090°53'0 0.0
2016-Jan-29 03:33N 32°23' W 090°53'1 0.8
2016-Jan-29 02:33N 32°23' W 090°53'1 0.7
2016-Jan-29 01:34N 32°23' W 090°53'  

Dump ship's entire track history